createdAt,value
2022-08-05T00:00:19.980Z,1.98
2022-08-05T00:02:50.734Z,1.88
2022-08-05T00:06:01.666Z,1.77
2022-08-05T00:08:32.486Z,1.60
2022-08-05T00:11:01.513Z,1.55
2022-08-05T00:13:39.633Z,1.65
2022-08-05T00:16:13.491Z,2.10
2022-08-05T00:18:46.004Z,2.03
2022-08-05T00:21:17.060Z,2.45
2022-08-05T00:23:53.620Z,2.45
2022-08-05T00:26:33.403Z,2.05
2022-08-05T00:29:00.040Z,2.50
2022-08-05T00:31:54.035Z,2.95
2022-08-05T00:34:54.291Z,2.42
2022-08-05T00:37:10.379Z,3.03
2022-08-05T00:39:57.187Z,3.30
2022-08-05T00:42:37.787Z,2.85
2022-08-05T00:45:08.756Z,3.30
2022-08-05T00:47:56.461Z,3.58
2022-08-05T00:50:25.131Z,2.97
2022-08-05T00:52:53.236Z,6.05
2022-08-05T00:55:22.135Z,5.32
2022-08-05T00:57:55.568Z,6.28
2022-08-05T01:00:28.289Z,5.18
2022-08-05T01:02:57.160Z,4.93
2022-08-05T01:05:24.738Z,4.05
2022-08-05T01:08:41.181Z,4.80
2022-08-05T01:10:51.506Z,4.65
2022-08-05T01:13:58.356Z,4.57
2022-08-05T01:16:38.180Z,4.20
2022-08-05T01:19:36.705Z,4.18
2022-08-05T01:22:52.693Z,4.20
2022-08-05T01:26:13.992Z,3.75
2022-08-05T01:29:13.260Z,4.28
2022-08-05T01:31:49.797Z,3.58
2022-08-05T01:34:29.700Z,3.63
2022-08-05T01:37:08.258Z,4.47
2022-08-05T01:39:47.184Z,4.10
2022-08-05T01:42:19.932Z,4.45
2022-08-05T01:44:53.956Z,3.83
2022-08-05T01:47:22.379Z,4.22
2022-08-05T01:50:01.764Z,4.57
2022-08-05T01:52:32.380Z,4.60
2022-08-05T01:55:04.425Z,4.20
2022-08-05T01:58:12.556Z,4.22
2022-08-05T02:00:30.126Z,4.57
2022-08-05T02:03:24.079Z,4.50
2022-08-05T02:05:59.670Z,3.60
2022-08-05T02:08:30.910Z,3.75
2022-08-05T02:11:12.009Z,4.07
2022-08-05T02:13:53.100Z,3.72
2022-08-05T02:16:33.651Z,3.45
2022-08-05T02:19:34.341Z,3.85
2022-08-05T02:22:28.284Z,4.18
2022-08-05T02:25:05.825Z,4.35
2022-08-05T02:27:57.976Z,3.83
2022-08-05T02:30:28.430Z,3.67
2022-08-05T02:32:58.871Z,3.75
2022-08-05T02:35:33.017Z,3.85
2022-08-05T02:38:05.197Z,4.32
2022-08-05T02:40:39.092Z,4.50
2022-08-05T02:43:07.161Z,3.72
2022-08-05T02:45:52.673Z,3.60
2022-08-05T02:48:28.855Z,3.72
2022-08-05T02:51:02.594Z,4.43
2022-08-05T02:53:39.580Z,4.03
2022-08-05T02:56:11.205Z,3.63
2022-08-05T02:58:44.996Z,3.75
2022-08-05T03:01:25.589Z,4.22
2022-08-05T03:04:03.146Z,4.10
2022-08-05T03:06:54.785Z,3.47
2022-08-05T03:09:27.245Z,3.90
2022-08-05T03:12:05.704Z,4.20
2022-08-05T03:14:32.458Z,4.28
2022-08-05T03:16:59.904Z,4.53
2022-08-05T03:19:33.544Z,4.28
2022-08-05T03:22:01.395Z,4.10
2022-08-05T03:24:30.353Z,4.82
2022-08-05T03:26:58.853Z,4.93
2022-08-05T03:29:44.585Z,4.97
2022-08-05T03:32:15.351Z,4.30
2022-08-05T03:34:51.359Z,4.63
2022-08-05T03:37:20.799Z,4.68
2022-08-05T03:40:01.397Z,4.35
2022-08-05T03:42:32.877Z,3.70
2022-08-05T03:45:21.935Z,4.13
2022-08-05T03:47:50.769Z,4.32
2022-08-05T03:50:18.232Z,3.75
2022-08-05T03:55:50.064Z,4.43
2022-08-05T03:56:12.029Z,4.40
2022-08-05T03:58:47.280Z,3.53
2022-08-05T04:01:16.264Z,3.50
2022-08-05T04:04:08.832Z,3.72
2022-08-05T04:06:38.574Z,3.78
2022-08-05T04:09:26.100Z,3.50
2022-08-05T04:11:56.410Z,2.90
2022-08-05T04:14:29.548Z,2.85
2022-08-05T04:17:02.852Z,2.42
2022-08-05T04:19:30.390Z,2.80
2022-08-05T04:22:09.813Z,2.50
2022-08-05T04:24:52.490Z,2.90
2022-08-05T04:27:42.161Z,3.47
2022-08-05T04:30:09.380Z,4.22
2022-08-05T04:32:36.458Z,4.93
2022-08-05T04:35:04.941Z,4.60
2022-08-05T04:38:00.662Z,4.60
2022-08-05T04:40:19.840Z,4.60
2022-08-05T04:42:46.596Z,4.65
2022-08-05T04:45:22.836Z,5.20
2022-08-05T04:48:18.429Z,5.20
2022-08-05T04:51:02.614Z,5.47
2022-08-05T04:53:33.576Z,5.55
2022-08-05T04:56:32.641Z,6.88
2022-08-05T04:58:49.874Z,5.93
2022-08-05T05:02:04.083Z,5.90
2022-08-05T05:04:04.855Z,6.50
2022-08-05T05:06:39.186Z,6.35
2022-08-05T05:09:17.436Z,6.68
2022-08-05T05:11:54.432Z,6.40
2022-08-05T05:14:27.973Z,6.60
2022-08-05T05:17:00.317Z,6.20
2022-08-05T05:19:36.876Z,6.18
2022-08-05T05:22:23.469Z,5.57
2022-08-05T05:24:57.335Z,5.30
2022-08-05T05:27:41.684Z,5.55
2022-08-05T05:30:30.604Z,5.22
2022-08-05T05:33:09.095Z,3.95
2022-08-05T05:35:48.024Z,3.33
2022-08-05T05:38:22.628Z,3.70
2022-08-05T05:40:55.706Z,3.47
2022-08-05T05:43:54.225Z,3.10
2022-08-05T05:46:17.221Z,3.03
2022-08-05T05:48:46.021Z,2.38
2022-08-05T05:51:25.739Z,2.67
2022-08-05T05:53:58.730Z,2.47
2022-08-05T05:56:32.618Z,2.53
2022-08-05T05:59:10.095Z,2.75
2022-08-05T06:01:40.616Z,2.08
2022-08-05T06:04:24.098Z,2.20
2022-08-05T06:06:50.790Z,2.75
2022-08-05T06:09:25.831Z,3.20
2022-08-05T06:12:01.097Z,3.00
2022-08-05T06:14:33.269Z,3.33
2022-08-05T06:17:01.828Z,3.15
2022-08-05T06:19:34.750Z,3.20
2022-08-05T06:22:03.939Z,3.08
2022-08-05T06:24:31.760Z,3.45
2022-08-05T06:26:58.697Z,3.35
2022-08-05T06:29:46.473Z,3.33
2022-08-05T06:32:26.411Z,3.67
2022-08-05T06:34:58.473Z,3.30
2022-08-05T06:37:56.354Z,3.97
2022-08-05T06:40:18.111Z,3.33
2022-08-05T06:42:51.863Z,3.72
2022-08-05T06:45:43.900Z,3.85
2022-08-05T06:48:44.056Z,4.43
2022-08-05T06:50:54.509Z,4.18
2022-08-05T06:53:27.905Z,4.38
2022-08-05T06:55:57.484Z,5.00
2022-08-05T06:58:35.368Z,4.30
2022-08-05T07:01:06.095Z,4.15
2022-08-05T07:03:33.992Z,3.70
2022-08-05T07:06:05.894Z,3.70
2022-08-05T07:08:47.520Z,4.15
2022-08-05T07:11:22.495Z,2.92
2022-08-05T07:14:20.307Z,3.10
2022-08-05T07:18:00.823Z,3.10
2022-08-05T07:22:33.850Z,2.65
2022-08-05T07:25:23.216Z,3.20
2022-08-05T07:27:57.456Z,3.38
2022-08-05T07:30:32.681Z,2.97
2022-08-05T07:33:05.373Z,3.15
2022-08-05T07:36:03.941Z,2.70
2022-08-05T07:38:32.036Z,3.20
2022-08-05T07:41:04.466Z,3.05
2022-08-05T07:43:47.185Z,2.90
2022-08-05T07:46:18.864Z,2.50
2022-08-05T07:49:01.748Z,2.40
2022-08-05T07:51:40.663Z,2.53
2022-08-05T07:54:16.666Z,2.55
2022-08-05T07:57:02.021Z,2.45
2022-08-05T07:59:40.359Z,1.90
2022-08-05T08:02:15.251Z,2.20
2022-08-05T08:04:46.054Z,2.08
2022-08-05T08:07:13.735Z,2.03
2022-08-05T08:09:40.657Z,1.90
2022-08-05T08:12:35.520Z,1.77
2022-08-05T08:14:54.824Z,2.20
2022-08-05T08:17:22.536Z,1.40
2022-08-05T08:20:21.790Z,1.33
2022-08-05T08:22:37.295Z,1.40
2022-08-05T08:25:16.107Z,1.50
2022-08-05T08:27:47.834Z,1.58
2022-08-05T08:30:33.983Z,1.33
2022-08-05T08:33:13.831Z,1.48
2022-08-05T08:35:52.343Z,1.52
2022-08-05T08:38:32.320Z,1.30
2022-08-05T08:41:10.176Z,1.45
2022-08-05T08:45:19.418Z,1.52
2022-08-05T08:46:31.464Z,1.60
2022-08-05T08:50:06.047Z,1.50
2022-08-05T08:52:03.573Z,1.30
2022-08-05T08:54:36.484Z,1.60
2022-08-05T08:57:11.308Z,1.40
2022-08-05T08:59:39.009Z,1.60
2022-08-05T09:02:13.836Z,1.60
2022-08-05T09:04:58.523Z,1.40
2022-08-05T09:07:39.743Z,1.40
2022-08-05T09:10:22.091Z,1.83
2022-08-05T09:12:56.803Z,1.70
2022-08-05T09:15:24.719Z,1.42
2022-08-05T09:17:52.882Z,1.73
2022-08-05T09:20:36.506Z,1.60
2022-08-05T09:23:18.980Z,1.48
2022-08-05T09:26:01.458Z,1.80
2022-08-05T09:28:34.030Z,1.75
2022-08-05T09:31:18.245Z,1.42
2022-08-05T09:34:09.877Z,1.80
2022-08-05T09:36:54.621Z,1.80
2022-08-05T09:39:41.249Z,1.80
2022-08-05T09:42:17.299Z,1.90
2022-08-05T09:44:52.892Z,1.70
2022-08-05T09:47:36.559Z,1.80
2022-08-05T09:50:18.115Z,1.77
2022-08-05T09:53:01.041Z,1.75
2022-08-05T09:55:58.168Z,1.95
2022-08-05T09:58:15.514Z,1.95
2022-08-05T10:01:01.168Z,1.90
2022-08-05T10:03:56.576Z,2.15
2022-08-05T10:06:19.963Z,1.67
2022-08-05T10:08:53.796Z,3.00
2022-08-05T10:11:21.301Z,2.50
2022-08-05T10:13:54.711Z,1.98
2022-08-05T10:16:42.080Z,2.22
2022-08-05T10:19:23.609Z,2.00
2022-08-05T10:21:58.948Z,2.13
2022-08-05T10:24:28.647Z,2.05
2022-08-05T10:27:00.322Z,2.60
2022-08-05T10:30:06.335Z,2.10
2022-08-05T10:32:54.349Z,2.33
2022-08-05T10:35:04.087Z,2.00
2022-08-05T10:37:44.374Z,1.80
2022-08-05T10:40:49.176Z,2.00
2022-08-05T10:44:02.552Z,2.22
2022-08-05T10:46:54.013Z,2.13
2022-08-05T10:49:27.575Z,2.28
2022-08-05T10:52:05.218Z,2.50
2022-08-05T10:55:16.085Z,2.20
2022-08-05T10:57:46.136Z,2.05
2022-08-05T11:00:24.144Z,2.53
2022-08-05T11:03:24.750Z,2.13
2022-08-05T11:06:15.931Z,3.47
2022-08-05T11:09:16.745Z,2.40
2022-08-05T11:11:52.977Z,2.42
2022-08-05T11:17:59.518Z,2.33
2022-08-05T11:20:46.441Z,2.45
2022-08-05T11:24:03.812Z,2.60
2022-08-05T11:26:32.577Z,3.53
2022-08-05T11:29:12.272Z,2.90
2022-08-05T11:31:56.231Z,2.95
2022-08-05T11:34:39.098Z,2.70
2022-08-05T11:38:29.634Z,3.50
2022-08-05T11:40:00.661Z,3.47
2022-08-05T11:42:32.224Z,3.83
2022-08-05T11:45:05.771Z,3.58
2022-08-05T11:47:49.803Z,3.70
2022-08-05T11:50:17.958Z,3.47
2022-08-05T11:52:46.153Z,3.28
2022-08-05T11:55:16.328Z,3.63
2022-08-05T11:58:10.116Z,4.60
2022-08-05T12:00:38.020Z,4.75
2022-08-05T12:03:28.428Z,6.40
2022-08-05T12:06:06.287Z,6.10
2022-08-05T12:08:58.054Z,6.30
2022-08-05T12:11:39.830Z,7.20
2022-08-05T12:14:08.702Z,7.65
2022-08-05T12:16:45.257Z,8.20
2022-08-05T12:20:26.027Z,6.85
2022-08-05T12:22:09.506Z,5.28
2022-08-05T12:24:43.636Z,6.18
2022-08-05T12:27:32.803Z,5.40
2022-08-05T12:30:10.304Z,5.65
2022-08-05T12:32:50.630Z,5.05
2022-08-05T12:35:21.682Z,5.30
2022-08-05T12:37:49.388Z,4.53
2022-08-05T12:40:26.765Z,4.32
2022-08-05T12:42:56.383Z,4.13
2022-08-05T12:45:23.507Z,3.58
2022-08-05T12:48:26.897Z,3.95
2022-08-05T12:52:10.048Z,3.78
2022-08-05T12:54:04.281Z,3.90
2022-08-05T12:56:43.106Z,3.78
2022-08-05T13:01:58.266Z,4.05
2022-08-05T13:02:41.369Z,3.78
2022-08-05T13:05:12.691Z,4.07
2022-08-05T13:08:00.460Z,4.55
2022-08-05T13:10:31.879Z,4.25
2022-08-05T13:12:58.878Z,4.13
2022-08-05T13:15:41.574Z,3.72
2022-08-05T13:18:20.017Z,3.80
2022-08-05T13:20:49.714Z,3.45
2022-08-05T13:23:18.323Z,5.65
2022-08-05T13:25:59.584Z,3.80
2022-08-05T13:28:28.862Z,3.95
2022-08-05T13:30:55.654Z,3.30
2022-08-05T13:34:23.890Z,4.25
2022-08-05T13:36:13.168Z,4.88
2022-08-05T13:38:42.239Z,4.60
2022-08-05T13:41:11.215Z,5.07
2022-08-05T13:43:45.825Z,5.28
2022-08-05T13:46:37.956Z,5.25
2022-08-05T13:49:13.474Z,5.88
2022-08-05T13:51:46.514Z,6.88
2022-08-05T13:54:16.004Z,6.72
2022-08-05T13:56:50.665Z,6.22
2022-08-05T13:59:24.319Z,6.63
2022-08-05T14:01:58.628Z,6.28
2022-08-05T14:04:54.980Z,5.60
2022-08-05T14:08:00.276Z,6.40
2022-08-05T14:10:18.750Z,5.25
2022-08-05T14:12:48.630Z,5.20
2022-08-05T14:16:08.602Z,4.40
2022-08-05T14:18:03.875Z,4.43
2022-08-05T14:20:31.298Z,5.03
2022-08-05T14:22:59.194Z,4.90
2022-08-05T14:25:28.271Z,4.68
2022-08-05T14:27:55.740Z,4.63
2022-08-05T14:30:22.698Z,4.43
2022-08-05T14:32:53.599Z,4.00
2022-08-05T14:35:20.877Z,3.55
2022-08-05T14:37:53.495Z,3.75
2022-08-05T14:40:24.281Z,2.92
2022-08-05T14:42:52.218Z,2.83
2022-08-05T14:45:19.786Z,3.28
2022-08-05T14:48:02.993Z,2.72
2022-08-05T14:50:31.591Z,3.30
2022-08-05T14:52:59.590Z,3.15
2022-08-05T14:55:38.663Z,3.22
2022-08-05T14:58:11.927Z,3.00
2022-08-05T15:00:58.561Z,3.10
2022-08-05T15:03:33.027Z,3.15
2022-08-05T15:06:12.889Z,3.28
2022-08-05T15:08:59.688Z,3.20
2022-08-05T15:11:51.489Z,2.85
2022-08-05T15:14:33.266Z,2.10
2022-08-05T15:17:03.790Z,2.10
2022-08-05T15:19:31.249Z,2.00
2022-08-05T15:22:00.752Z,2.22
2022-08-05T15:24:28.817Z,1.70
2022-08-05T15:26:55.962Z,2.10
2022-08-05T15:29:23.958Z,1.90
2022-08-05T15:32:03.047Z,1.92
2022-08-05T15:34:32.923Z,1.90
2022-08-05T15:37:06.484Z,1.73
2022-08-05T15:41:00.731Z,1.60
2022-08-05T15:42:50.345Z,1.27
2022-08-05T15:45:10.362Z,1.30
2022-08-05T15:47:41.758Z,1.10
2022-08-05T15:50:09.514Z,1.00
2022-08-05T15:52:53.108Z,0.90
2022-08-05T15:55:24.945Z,0.80
2022-08-05T15:58:09.881Z,0.60
2022-08-05T16:00:57.084Z,0.60
2022-08-05T16:03:30.672Z,0.80
2022-08-05T16:05:59.481Z,0.80
2022-08-05T16:08:30.661Z,0.80
2022-08-05T16:10:58.517Z,0.80
2022-08-05T16:13:32.066Z,0.68
2022-08-05T16:16:04.714Z,0.60
2022-08-05T16:18:34.995Z,0.80
2022-08-05T16:21:18.641Z,0.52
2022-08-05T16:23:53.864Z,0.47
2022-08-05T16:26:26.239Z,0.50
2022-08-05T16:28:54.387Z,0.60
2022-08-05T16:31:21.872Z,0.70
2022-08-05T16:33:52.096Z,0.40
2022-08-05T16:36:24.052Z,0.50
2022-08-05T16:38:55.028Z,0.43
2022-08-05T16:42:15.370Z,0.70
2022-08-05T16:44:12.564Z,0.52
2022-08-05T16:46:41.369Z,0.50
2022-08-05T16:49:23.195Z,0.60
2022-08-05T16:51:51.126Z,0.65
2022-08-05T16:54:28.641Z,0.60
2022-08-05T16:56:58.783Z,0.80
2022-08-05T16:59:25.560Z,0.82
2022-08-05T17:01:55.961Z,0.70
2022-08-05T17:04:28.176Z,0.70
2022-08-05T17:07:00.365Z,0.68
2022-08-05T17:09:38.913Z,0.80
2022-08-05T17:12:17.991Z,0.75
2022-08-05T17:14:49.671Z,0.80
2022-08-05T17:17:16.480Z,0.77
2022-08-05T17:19:46.546Z,0.68
2022-08-05T17:22:25.546Z,0.95
2022-08-05T17:24:58.079Z,0.68
2022-08-05T17:27:34.153Z,1.00
2022-08-05T17:30:03.960Z,1.05
2022-08-05T17:32:32.196Z,0.70
2022-08-05T17:35:01.871Z,0.77
2022-08-05T17:37:40.202Z,0.95
2022-08-05T17:40:15.464Z,0.90
2022-08-05T17:42:50.614Z,0.85
2022-08-05T17:45:24.649Z,0.82
2022-08-05T17:47:55.486Z,0.70
2022-08-05T17:50:30.376Z,1.10
2022-08-05T17:53:00.985Z,0.80
2022-08-05T17:55:34.713Z,1.00
2022-08-05T17:58:12.569Z,0.70
2022-08-05T18:00:47.572Z,0.82
2022-08-05T18:06:11.947Z,1.10
2022-08-05T18:08:44.490Z,1.17
2022-08-05T18:11:23.424Z,0.95
2022-08-05T18:13:53.742Z,0.90
2022-08-05T18:16:21.170Z,1.00
2022-08-05T18:18:50.092Z,1.00
2022-08-05T18:21:20.100Z,0.88
2022-08-05T18:23:53.685Z,1.10
2022-08-05T18:26:29.183Z,0.82
2022-08-05T18:28:58.809Z,1.25
2022-08-05T18:31:26.122Z,0.70
2022-08-05T18:34:01.421Z,0.80
2022-08-05T18:36:29.365Z,1.10
2022-08-05T18:38:56.309Z,0.70
2022-08-05T18:41:53.666Z,0.77
2022-08-05T18:44:11.227Z,0.80
2022-08-05T18:46:41.189Z,0.88
2022-08-05T18:49:30.701Z,0.82
2022-08-05T18:52:32.926Z,0.73
2022-08-05T18:55:00.653Z,0.90
2022-08-05T18:57:27.568Z,0.80
2022-08-05T19:00:20.346Z,1.05
2022-08-05T19:02:47.815Z,0.82
2022-08-05T19:06:12.177Z,1.00
2022-08-05T19:08:02.654Z,1.27
2022-08-05T19:10:30.331Z,1.02
2022-08-05T19:12:57.506Z,1.00
2022-08-05T19:15:57.696Z,1.10
2022-08-05T19:18:21.988Z,1.17
2022-08-05T19:20:53.589Z,0.90
2022-08-05T19:24:04.416Z,1.00
2022-08-05T19:26:09.248Z,1.27
2022-08-05T19:28:41.849Z,1.10
2022-08-05T19:31:13.269Z,1.20
2022-08-05T19:33:48.176Z,1.20
2022-08-05T19:36:24.323Z,1.25
2022-08-05T19:38:51.227Z,1.27
2022-08-05T19:41:17.875Z,0.93
2022-08-05T19:44:05.296Z,1.40
2022-08-05T19:46:39.540Z,1.25
2022-08-05T19:49:07.711Z,1.35
2022-08-05T19:52:06.062Z,1.35
2022-08-05T19:54:31.527Z,1.40
2022-08-05T19:56:59.730Z,1.20
2022-08-05T19:59:56.372Z,1.10
2022-08-05T20:02:17.653Z,1.40
2022-08-05T20:04:48.485Z,1.17
2022-08-05T20:07:15.863Z,1.23
2022-08-05T20:10:11.463Z,1.10
2022-08-05T20:12:40.042Z,1.15
2022-08-05T20:15:23.374Z,1.00
2022-08-05T20:18:04.300Z,1.33
2022-08-05T20:20:38.894Z,1.08
2022-08-05T20:23:05.594Z,1.52
2022-08-05T20:25:39.894Z,1.55
2022-08-05T20:28:08.076Z,1.27
2022-08-05T20:30:40.559Z,1.30
2022-08-05T20:33:08.623Z,1.33
2022-08-05T20:35:40.494Z,0.93
2022-08-05T20:38:19.987Z,1.13
2022-08-05T20:40:50.491Z,1.42
2022-08-05T20:43:17.621Z,1.10
2022-08-05T20:46:06.609Z,1.10
2022-08-05T20:48:36.586Z,1.25
2022-08-05T20:51:08.392Z,1.30
2022-08-05T20:53:36.766Z,1.10
2022-08-05T20:56:09.711Z,1.30
2022-08-05T20:58:37.009Z,1.05
2022-08-05T21:01:04.625Z,1.23
2022-08-05T21:03:34.566Z,1.00
2022-08-05T21:06:02.106Z,1.10
2022-08-05T21:08:41.615Z,1.10
2022-08-05T21:11:12.261Z,1.00
2022-08-05T21:13:47.526Z,1.20
2022-08-05T21:16:29.997Z,1.10
2022-08-05T21:19:00.183Z,1.02
2022-08-05T21:21:44.248Z,1.10
2022-08-05T21:24:16.089Z,1.23
2022-08-05T21:26:53.299Z,1.00
2022-08-05T21:29:23.612Z,1.02
2022-08-05T21:31:54.502Z,1.10
2022-08-05T21:34:22.992Z,1.20
2022-08-05T21:36:53.010Z,1.10
2022-08-05T21:39:27.103Z,0.95
2022-08-05T21:42:01.640Z,1.10
2022-08-05T21:44:30.389Z,1.10
2022-08-05T21:46:58.433Z,1.10
2022-08-05T21:49:59.368Z,1.00
2022-08-05T21:52:16.258Z,1.00
2022-08-05T21:54:51.180Z,1.23
2022-08-05T21:57:31.734Z,1.00
2022-08-05T22:00:06.219Z,1.00
2022-08-05T22:02:34.105Z,1.20
2022-08-05T22:05:00.835Z,1.00
2022-08-05T22:07:40.436Z,1.00
2022-08-05T22:10:16.497Z,0.90
2022-08-05T22:12:44.942Z,1.13
2022-08-05T22:16:01.211Z,0.95
2022-08-05T22:18:05.905Z,1.15
2022-08-05T22:20:33.002Z,0.90
2022-08-05T22:23:24.432Z,1.10
2022-08-05T22:26:11.828Z,0.85
2022-08-05T22:28:41.693Z,1.67
2022-08-05T22:31:08.361Z,1.00
2022-08-05T22:33:57.699Z,0.88
2022-08-05T22:36:24.998Z,0.90
2022-08-05T22:38:53.715Z,1.15
2022-08-05T22:42:04.847Z,0.95
2022-08-05T22:44:08.587Z,0.90
2022-08-05T22:46:39.399Z,1.27
2022-08-05T22:50:20.984Z,1.50
2022-08-05T22:52:04.498Z,0.80
2022-08-05T22:54:37.616Z,1.05
2022-08-05T22:57:06.173Z,0.77
2022-08-05T22:59:44.157Z,0.90
2022-08-05T23:02:16.877Z,1.00
2022-08-05T23:04:51.429Z,0.93
2022-08-05T23:07:22.274Z,0.98
2022-08-05T23:09:53.310Z,0.80
2022-08-05T23:12:28.854Z,1.00
2022-08-05T23:14:55.723Z,0.90
2022-08-05T23:17:34.437Z,0.82
2022-08-05T23:20:10.502Z,0.93
2022-08-05T23:22:47.800Z,0.80
2022-08-05T23:25:52.476Z,0.80
2022-08-05T23:28:06.936Z,0.70
2022-08-05T23:30:40.464Z,0.80
2022-08-05T23:33:21.929Z,0.80
2022-08-05T23:35:55.083Z,0.88
2022-08-05T23:38:24.479Z,0.80
2022-08-05T23:40:52.876Z,0.80
2022-08-05T23:43:25.537Z,0.75
2022-08-05T23:46:19.625Z,0.60
2022-08-05T23:49:00.256Z,0.77
2022-08-05T23:51:53.764Z,0.60
2022-08-05T23:54:25.783Z,0.75
2022-08-05T23:56:55.416Z,0.95
2022-08-05T23:59:27.825Z,0.60
